createdAt,value
2018-12-06T00:00:50.694Z,0
2018-12-06T00:01:52.801Z,0
2018-12-06T00:02:54.925Z,0
2018-12-06T00:03:57.052Z,0
2018-12-06T00:04:59.167Z,0
2018-12-06T00:06:01.559Z,0
2018-12-06T00:07:03.691Z,0
2018-12-06T00:08:05.895Z,0
2018-12-06T00:09:08.395Z,0
2018-12-06T00:10:10.507Z,0
2018-12-06T00:11:12.636Z,0
2018-12-06T00:12:14.735Z,0
2018-12-06T00:13:16.853Z,0
2018-12-06T00:14:19.085Z,0
2018-12-06T00:15:21.185Z,0
2018-12-06T00:16:23.313Z,0
2018-12-06T00:17:25.430Z,0
2018-12-06T00:18:27.542Z,0
2018-12-06T00:19:29.648Z,0
2018-12-06T00:20:31.819Z,0
2018-12-06T00:21:33.938Z,0
2018-12-06T00:22:36.065Z,0
2018-12-06T00:23:38.185Z,0
2018-12-06T00:24:40.284Z,0
2018-12-06T00:25:42.785Z,0
2018-12-06T00:26:44.904Z,0
2018-12-06T00:27:47.001Z,0
2018-12-06T00:28:49.121Z,0
2018-12-06T00:29:51.237Z,0
2018-12-06T00:30:53.617Z,0
2018-12-06T00:31:55.747Z,0
2018-12-06T00:32:57.939Z,0
2018-12-06T00:34:00.059Z,0
2018-12-06T00:35:02.159Z,0
2018-12-06T00:36:04.289Z,0
2018-12-06T00:37:06.393Z,0
2018-12-06T00:38:08.504Z,0
2018-12-06T00:39:10.919Z,0
2018-12-06T00:40:13.028Z,0
2018-12-06T00:41:15.132Z,0
2018-12-06T00:42:17.529Z,0
2018-12-06T00:43:19.650Z,0
2018-12-06T00:44:21.789Z,0
2018-12-06T00:45:23.906Z,0
2018-12-06T00:46:26.416Z,0
2018-12-06T00:47:28.544Z,0
2018-12-06T00:48:30.646Z,0
2018-12-06T00:49:32.772Z,0
2018-12-06T00:50:35.271Z,0
2018-12-06T00:51:37.658Z,0
2018-12-06T00:52:39.786Z,0
2018-12-06T00:53:41.924Z,0
2018-12-06T00:54:44.332Z,0
2018-12-06T00:55:46.503Z,0
2018-12-06T00:56:48.899Z,0
2018-12-06T00:57:51.001Z,0
2018-12-06T00:58:53.111Z,0
2018-12-06T00:59:55.242Z,0
2018-12-06T01:00:57.342Z,0
2018-12-06T01:01:59.467Z,0
2018-12-06T01:03:01.681Z,0
2018-12-06T01:04:03.785Z,0
2018-12-06T01:05:05.916Z,0
2018-12-06T01:06:08.028Z,0
2018-12-06T01:07:10.144Z,0
2018-12-06T01:08:12.250Z,0
2018-12-06T01:09:14.385Z,0
2018-12-06T01:10:16.484Z,0
2018-12-06T01:11:18.611Z,0
2018-12-06T01:12:21.054Z,0
2018-12-06T01:13:23.161Z,0
2018-12-06T01:14:25.287Z,0
2018-12-06T01:15:27.464Z,0
2018-12-06T01:16:29.583Z,0
2018-12-06T01:17:32.160Z,0
2018-12-06T01:18:34.288Z,0
2018-12-06T01:19:36.401Z,0
2018-12-06T01:20:38.808Z,0
2018-12-06T01:21:41.315Z,0
2018-12-06T01:22:43.413Z,0
2018-12-06T01:23:45.521Z,0
2018-12-06T01:24:47.639Z,0
2018-12-06T01:25:49.761Z,0
2018-12-06T01:26:52.148Z,0
2018-12-06T01:27:54.274Z,0
2018-12-06T01:28:56.371Z,0
2018-12-06T01:29:58.478Z,0
2018-12-06T01:31:00.605Z,0
2018-12-06T01:32:03.007Z,0
2018-12-06T01:33:05.113Z,0
2018-12-06T01:34:07.245Z,0
2018-12-06T01:35:09.369Z,0
2018-12-06T01:36:11.474Z,0
2018-12-06T01:37:13.600Z,0
2018-12-06T01:38:15.709Z,0
2018-12-06T01:39:18.138Z,0
2018-12-06T01:40:20.254Z,0
2018-12-06T01:41:22.381Z,0
2018-12-06T01:42:24.487Z,0
2018-12-06T01:43:26.616Z,0
2018-12-06T01:44:28.728Z,0
2018-12-06T01:45:30.832Z,0
2018-12-06T01:46:33.248Z,0
2018-12-06T01:47:35.350Z,0
2018-12-06T01:48:37.457Z,0
2018-12-06T01:49:39.962Z,0
2018-12-06T01:50:42.099Z,0
2018-12-06T01:51:44.198Z,0
2018-12-06T01:52:46.316Z,0
2018-12-06T01:53:48.431Z,0
2018-12-06T01:54:50.806Z,0
2018-12-06T01:55:52.926Z,0
2018-12-06T01:56:55.047Z,0
2018-12-06T01:57:57.164Z,0
2018-12-06T01:58:59.268Z,0
2018-12-06T02:00:01.367Z,0
2018-12-06T02:01:03.789Z,0
2018-12-06T02:02:05.952Z,0
2018-12-06T02:03:08.067Z,0
2018-12-06T02:04:10.189Z,0
2018-12-06T02:05:12.298Z,0
2018-12-06T02:06:14.399Z,0
2018-12-06T02:07:16.556Z,0
2018-12-06T02:08:18.671Z,0
2018-12-06T02:09:20.793Z,0
2018-12-06T02:10:23.014Z,0
2018-12-06T02:11:25.112Z,0
2018-12-06T02:12:27.244Z,0
2018-12-06T02:13:29.356Z,0
2018-12-06T02:14:31.560Z,0
2018-12-06T02:15:33.978Z,0
2018-12-06T02:16:36.393Z,0
2018-12-06T02:17:38.501Z,0
2018-12-06T02:18:40.606Z,0
2018-12-06T02:19:42.736Z,0
2018-12-06T02:20:44.844Z,0
2018-12-06T02:21:46.956Z,0
2018-12-06T02:22:49.090Z,0
2018-12-06T02:23:51.225Z,0
2018-12-06T02:24:53.346Z,0
2018-12-06T02:25:55.466Z,0
2018-12-06T02:26:57.581Z,0
2018-12-06T02:27:59.686Z,0
2018-12-06T02:29:01.815Z,0
2018-12-06T02:30:05.026Z,0
2018-12-06T02:31:07.522Z,0
2018-12-06T02:32:10.038Z,0
2018-12-06T02:33:12.476Z,0
2018-12-06T02:34:14.981Z,0
2018-12-06T02:35:17.104Z,0
2018-12-06T02:36:19.238Z,0
2018-12-06T02:37:21.955Z,0
2018-12-06T02:38:24.080Z,0
2018-12-06T02:39:26.504Z,0
2018-12-06T02:40:28.614Z,0
2018-12-06T02:41:30.726Z,0
2018-12-06T02:42:32.847Z,0
2018-12-06T02:43:34.961Z,0
2018-12-06T02:44:37.106Z,0
2018-12-06T02:45:39.222Z,0
2018-12-06T02:46:41.351Z,0
2018-12-06T02:47:43.864Z,0
2018-12-06T02:48:45.999Z,0
2018-12-06T02:49:48.117Z,0
2018-12-06T02:50:50.243Z,0
2018-12-06T02:51:52.778Z,0
2018-12-06T02:52:55.176Z,0
2018-12-06T02:53:57.592Z,0
2018-12-06T02:55:00.081Z,0
2018-12-06T02:56:02.880Z,0
2018-12-06T02:57:04.981Z,0
2018-12-06T02:58:07.398Z,0
2018-12-06T02:59:09.522Z,0
2018-12-06T03:00:11.635Z,0
2018-12-06T03:01:13.778Z,0
2018-12-06T03:02:16.163Z,0
2018-12-06T03:03:18.284Z,0
2018-12-06T03:04:20.435Z,0
2018-12-06T03:05:22.558Z,0
2018-12-06T03:06:25.087Z,0
2018-12-06T03:07:27.542Z,0
2018-12-06T03:08:29.664Z,0
2018-12-06T03:09:31.795Z,0
2018-12-06T03:10:33.926Z,0
2018-12-06T03:11:36.319Z,0
2018-12-06T03:12:38.843Z,0
2018-12-06T03:13:41.544Z,0
2018-12-06T03:14:44.349Z,0
2018-12-06T03:15:46.487Z,0
2018-12-06T03:16:48.599Z,0
2018-12-06T03:17:51.049Z,0
2018-12-06T03:18:53.172Z,0
2018-12-06T03:19:55.602Z,0
2018-12-06T03:20:57.715Z,0
2018-12-06T03:22:00.224Z,0
2018-12-06T03:23:02.626Z,0
2018-12-06T03:24:05.420Z,0
2018-12-06T03:25:07.938Z,0
2018-12-06T03:26:10.044Z,0
2018-12-06T03:27:12.259Z,0
2018-12-06T03:28:14.380Z,0
2018-12-06T03:29:16.506Z,0
2018-12-06T03:30:19.717Z,0
2018-12-06T03:31:21.877Z,0
2018-12-06T03:32:24.604Z,0
2018-12-06T03:33:27.365Z,0
2018-12-06T03:34:29.523Z,0
2018-12-06T03:35:31.625Z,0
2018-12-06T03:36:33.750Z,0
2018-12-06T03:37:35.881Z,0
2018-12-06T03:38:37.996Z,0
2018-12-06T03:39:40.121Z,0
2018-12-06T03:40:42.246Z,0
2018-12-06T03:41:44.790Z,0
2018-12-06T03:42:46.915Z,0
2018-12-06T03:43:49.336Z,0
2018-12-06T03:44:51.496Z,0
2018-12-06T03:45:53.615Z,0
2018-12-06T03:46:56.047Z,0
2018-12-06T03:47:58.153Z,0
2018-12-06T03:49:00.768Z,0
2018-12-06T03:50:03.326Z,0
2018-12-06T03:51:06.022Z,0
2018-12-06T03:52:08.156Z,0
2018-12-06T03:53:10.561Z,0
2018-12-06T03:54:12.699Z,0
2018-12-06T03:55:15.179Z,0
2018-12-06T03:56:17.709Z,0
2018-12-06T03:57:19.842Z,0
2018-12-06T03:58:22.077Z,0
2018-12-06T03:59:24.610Z,0
2018-12-06T04:00:27.017Z,0
2018-12-06T04:01:29.420Z,0
2018-12-06T04:02:31.832Z,0
2018-12-06T04:03:35.017Z,0
2018-12-06T04:04:37.144Z,0
2018-12-06T04:05:39.660Z,0
2018-12-06T04:06:41.785Z,0
2018-12-06T04:07:44.276Z,0
2018-12-06T04:08:46.427Z,0
2018-12-06T04:09:48.842Z,0
2018-12-06T04:10:50.976Z,0
2018-12-06T04:11:53.094Z,0
2018-12-06T04:12:55.235Z,0
2018-12-06T04:13:57.634Z,0
2018-12-06T04:15:00.052Z,0
2018-12-06T04:16:03.397Z,0
2018-12-06T04:17:05.523Z,0
2018-12-06T04:18:07.647Z,0
2018-12-06T04:19:10.176Z,0
2018-12-06T04:20:12.588Z,0
2018-12-06T04:21:15.098Z,0
2018-12-06T04:22:17.307Z,0
2018-12-06T04:23:19.414Z,0
2018-12-06T04:24:21.643Z,0
2018-12-06T04:25:24.136Z,0
2018-12-06T04:26:26.863Z,0
2018-12-06T04:27:29.581Z,0
2018-12-06T04:28:32.881Z,0
2018-12-06T04:29:35.618Z,0
2018-12-06T04:30:37.736Z,0
2018-12-06T04:31:40.526Z,0
2018-12-06T04:32:42.666Z,0
2018-12-06T04:33:44.769Z,0
2018-12-06T04:34:46.922Z,0
2018-12-06T04:35:49.321Z,0
2018-12-06T04:36:51.740Z,0
2018-12-06T04:37:53.959Z,0
2018-12-06T04:38:56.090Z,0
2018-12-06T04:39:58.501Z,0
2018-12-06T04:41:00.622Z,0
2018-12-06T04:42:02.764Z,0
2018-12-06T04:43:05.271Z,0
2018-12-06T04:44:07.470Z,0
2018-12-06T04:45:09.593Z,0
2018-12-06T04:46:11.727Z,0
2018-12-06T04:47:15.609Z,0
2018-12-06T04:48:23.625Z,0
2018-12-06T04:49:26.424Z,0
2018-12-06T04:50:28.937Z,0
2018-12-06T04:51:31.054Z,0
2018-12-06T04:52:33.161Z,0
2018-12-06T04:53:35.272Z,0
2018-12-06T04:54:37.697Z,0
2018-12-06T04:55:39.805Z,0
2018-12-06T04:56:41.950Z,0
2018-12-06T04:57:44.625Z,0
2018-12-06T04:58:46.758Z,0
2018-12-06T04:59:48.869Z,0
2018-12-06T05:00:50.997Z,0
2018-12-06T05:01:53.101Z,0
2018-12-06T05:02:55.817Z,0
2018-12-06T05:03:57.901Z,0
2018-12-06T05:05:00.026Z,0
2018-12-06T05:06:02.138Z,0
2018-12-06T05:07:04.552Z,0
2018-12-06T05:08:06.963Z,0
2018-12-06T05:09:09.076Z,0
2018-12-06T05:10:11.175Z,0
2018-12-06T05:11:13.294Z,0
2018-12-06T05:12:15.448Z,0
2018-12-06T05:13:17.581Z,0
2018-12-06T05:14:21.909Z,0
2018-12-06T05:15:24.019Z,0
2018-12-06T05:16:26.146Z,0
2018-12-06T05:17:28.263Z,0
2018-12-06T05:18:30.403Z,0
2018-12-06T05:19:32.507Z,0
2018-12-06T05:20:34.918Z,0
2018-12-06T05:21:37.054Z,0
2018-12-06T05:22:39.154Z,0
2018-12-06T05:23:41.571Z,0
2018-12-06T05:24:43.697Z,0
2018-12-06T05:25:45.810Z,0
2018-12-06T05:26:47.919Z,0
2018-12-06T05:27:50.690Z,0
2018-12-06T05:28:52.784Z,0
2018-12-06T05:29:55.199Z,0
2018-12-06T05:30:57.318Z,0
2018-12-06T05:31:59.428Z,0
2018-12-06T05:33:01.534Z,0
2018-12-06T05:34:04.056Z,0
2018-12-06T05:35:06.160Z,0
2018-12-06T05:36:08.677Z,0
2018-12-06T05:37:10.788Z,0
2018-12-06T05:38:13.393Z,0
2018-12-06T05:39:15.512Z,0
2018-12-06T05:40:17.612Z,0
2018-12-06T05:41:19.733Z,0
2018-12-06T05:42:21.845Z,0
2018-12-06T05:43:23.959Z,0
2018-12-06T05:44:26.089Z,0
2018-12-06T05:45:28.219Z,0
2018-12-06T05:46:30.312Z,0
2018-12-06T05:47:32.442Z,0
2018-12-06T05:48:34.533Z,0
2018-12-06T05:49:36.634Z,0
2018-12-06T05:50:38.764Z,0
2018-12-06T05:51:40.884Z,0
2018-12-06T05:52:43.008Z,0
2018-12-06T05:53:45.129Z,0
2018-12-06T05:54:47.214Z,0
2018-12-06T05:55:49.402Z,0
2018-12-06T05:56:51.508Z,0
2018-12-06T05:57:53.628Z,0
2018-12-06T05:58:55.748Z,0
2018-12-06T05:59:58.173Z,0
2018-12-06T06:01:00.275Z,0
2018-12-06T06:02:02.409Z,0
2018-12-06T06:03:04.533Z,0
2018-12-06T06:04:06.669Z,0
2018-12-06T06:05:08.791Z,0
2018-12-06T06:06:10.888Z,0
2018-12-06T06:07:13.009Z,0
2018-12-06T06:08:15.511Z,0
2018-12-06T06:09:17.921Z,0
2018-12-06T06:10:20.404Z,0
2018-12-06T06:11:22.522Z,0
2018-12-06T06:12:24.921Z,0
2018-12-06T06:13:27.408Z,0
2018-12-06T06:14:29.510Z,0
2018-12-06T06:15:31.609Z,0
2018-12-06T06:16:33.758Z,0
2018-12-06T06:17:35.867Z,0
2018-12-06T06:18:38.247Z,0
2018-12-06T06:19:40.391Z,0
2018-12-06T06:20:42.474Z,0
2018-12-06T06:21:44.648Z,0
2018-12-06T06:22:46.768Z,0
2018-12-06T06:23:49.164Z,0
2018-12-06T06:24:51.274Z,0
2018-12-06T06:25:53.791Z,0
2018-12-06T06:26:55.914Z,0
2018-12-06T06:27:58.016Z,0
2018-12-06T06:29:00.139Z,0
2018-12-06T06:30:02.946Z,0
2018-12-06T06:31:05.047Z,0
2018-12-06T06:32:07.166Z,0
2018-12-06T06:33:10.124Z,0
2018-12-06T06:34:12.371Z,0
2018-12-06T06:35:14.766Z,0
2018-12-06T06:36:16.880Z,0
2018-12-06T06:37:19.321Z,0
2018-12-06T06:38:21.438Z,0
2018-12-06T06:39:23.898Z,0
2018-12-06T06:40:25.992Z,0
2018-12-06T06:41:28.406Z,0
2018-12-06T06:42:30.493Z,0
2018-12-06T06:43:32.619Z,0
2018-12-06T06:44:34.718Z,0
2018-12-06T06:45:36.826Z,0
2018-12-06T06:46:38.935Z,0
2018-12-06T06:47:41.449Z,0
2018-12-06T06:48:43.573Z,0
2018-12-06T06:49:45.692Z,0
2018-12-06T06:50:47.792Z,0
2018-12-06T06:51:49.899Z,0
2018-12-06T06:52:52.016Z,0
2018-12-06T06:53:54.436Z,0
2018-12-06T06:54:56.942Z,0
2018-12-06T06:55:59.066Z,0
2018-12-06T06:57:01.167Z,0
2018-12-06T06:58:03.291Z,0
2018-12-06T06:59:05.392Z,0
2018-12-06T07:00:07.778Z,0
2018-12-06T07:01:09.909Z,0
2018-12-06T07:02:24.680Z,0
2018-12-06T07:03:26.706Z,0
2018-12-06T07:04:29.015Z,0
2018-12-06T07:05:31.057Z,0
2018-12-06T07:06:33.087Z,0
2018-12-06T07:07:35.098Z,0
2018-12-06T07:08:37.195Z,0
2018-12-06T07:09:39.213Z,0
2018-12-06T07:10:41.265Z,0
2018-12-06T07:11:43.275Z,0
2018-12-06T07:12:45.300Z,0
2018-12-06T07:13:47.321Z,0
2018-12-06T07:14:49.439Z,0
2018-12-06T07:15:51.464Z,0
2018-12-06T07:16:53.519Z,0
2018-12-06T07:17:55.549Z,0
2018-12-06T07:18:57.567Z,0
2018-12-06T07:19:59.675Z,0
2018-12-06T07:21:01.717Z,0
2018-12-06T07:22:03.757Z,0
2018-12-06T07:23:05.772Z,0
2018-12-06T07:24:07.798Z,0
2018-12-06T07:25:10.254Z,0
2018-12-06T07:26:12.276Z,0
2018-12-06T07:27:14.971Z,0
2018-12-06T07:28:16.999Z,0
2018-12-06T07:29:19.033Z,0
2018-12-06T07:30:21.066Z,0
2018-12-06T07:31:23.103Z,0
2018-12-06T07:32:25.193Z,0
2018-12-06T07:33:27.210Z,0
2018-12-06T07:34:29.545Z,0
2018-12-06T07:35:33.428Z,0
2018-12-06T07:36:35.462Z,0
2018-12-06T07:37:37.497Z,0
2018-12-06T07:38:39.508Z,0
2018-12-06T07:39:41.536Z,0
2018-12-06T07:40:43.571Z,0
2018-12-06T07:41:45.622Z,1
2018-12-06T07:42:47.655Z,1
2018-12-06T07:43:49.693Z,1
2018-12-06T07:44:52.100Z,1
2018-12-06T07:45:54.126Z,1
2018-12-06T07:46:56.831Z,1
2018-12-06T07:47:59.148Z,1
2018-12-06T07:49:01.171Z,1
2018-12-06T07:50:03.218Z,1
2018-12-06T07:51:05.898Z,1
2018-12-06T07:52:08.255Z,1
2018-12-06T07:53:10.291Z,1
2018-12-06T07:54:13.954Z,1
2018-12-06T07:55:16.390Z,1
2018-12-06T07:56:18.413Z,1
2018-12-06T07:57:20.765Z,1
2018-12-06T07:58:22.786Z,1
2018-12-06T07:59:24.827Z,1
2018-12-06T08:00:26.842Z,1
2018-12-06T08:01:28.863Z,1
2018-12-06T08:02:30.895Z,1
2018-12-06T08:03:33.283Z,1
2018-12-06T08:04:35.589Z,1
2018-12-06T08:05:38.008Z,1
2018-12-06T08:06:40.029Z,1
2018-12-06T08:07:42.079Z,1
2018-12-06T08:08:44.140Z,1
2018-12-06T08:09:46.182Z,1
2018-12-06T08:10:48.200Z,1
2018-12-06T08:11:50.216Z,1
2018-12-06T08:12:52.261Z,1
2018-12-06T08:13:54.285Z,1
2018-12-06T08:14:56.320Z,1
2018-12-06T08:15:58.629Z,1
2018-12-06T08:17:00.675Z,1
2018-12-06T08:18:02.695Z,1
2018-12-06T08:19:04.720Z,1
2018-12-06T08:20:06.741Z,1
2018-12-06T08:21:08.776Z,1
2018-12-06T08:22:10.790Z,2
2018-12-06T08:23:12.843Z,2
2018-12-06T08:24:14.862Z,2
2018-12-06T08:25:18.043Z,2
2018-12-06T08:26:20.064Z,2
2018-12-06T08:27:22.107Z,2
2018-12-06T08:28:24.539Z,3
2018-12-06T08:29:26.550Z,3
2018-12-06T08:30:28.574Z,4
2018-12-06T08:31:30.615Z,4
2018-12-06T08:32:32.936Z,5
2018-12-06T08:33:35.242Z,5
2018-12-06T08:34:37.271Z,5
2018-12-06T08:35:39.290Z,5
2018-12-06T08:36:41.313Z,5
2018-12-06T08:37:43.637Z,6
2018-12-06T08:38:45.636Z,6
2018-12-06T08:39:48.046Z,6
2018-12-06T08:40:50.090Z,6
2018-12-06T08:41:52.107Z,6
2018-12-06T08:42:54.140Z,6
2018-12-06T08:43:56.559Z,6
2018-12-06T08:44:58.575Z,6
2018-12-06T08:46:00.892Z,7
2018-12-06T08:47:02.910Z,7
2018-12-06T08:48:05.339Z,7
2018-12-06T08:49:07.367Z,7
2018-12-06T08:50:09.768Z,8
2018-12-06T08:51:11.786Z,8
2018-12-06T08:52:13.819Z,8
2018-12-06T08:53:15.831Z,8
2018-12-06T08:54:18.235Z,9
2018-12-06T08:55:20.546Z,8
2018-12-06T08:56:22.569Z,8
2018-12-06T08:57:24.695Z,8
2018-12-06T08:58:26.720Z,9
2018-12-06T08:59:28.747Z,9
2018-12-06T09:00:31.159Z,10
2018-12-06T09:01:33.570Z,10
2018-12-06T09:02:35.595Z,10
2018-12-06T09:03:37.641Z,10
2018-12-06T09:04:39.673Z,10
2018-12-06T09:05:41.723Z,10
2018-12-06T09:06:43.742Z,10
2018-12-06T09:07:45.771Z,11
2018-12-06T09:08:47.793Z,13
2018-12-06T09:09:49.826Z,13
2018-12-06T09:10:53.685Z,14
2018-12-06T09:11:56.478Z,14
2018-12-06T09:12:58.563Z,14
2018-12-06T09:14:00.584Z,15
2018-12-06T09:15:03.013Z,16
2018-12-06T09:16:05.331Z,17
2018-12-06T09:17:07.365Z,18
2018-12-06T09:18:09.413Z,18
2018-12-06T09:19:11.451Z,17
2018-12-06T09:20:13.446Z,17
2018-12-06T09:21:15.851Z,16
2018-12-06T09:22:17.869Z,15
2018-12-06T09:23:19.909Z,14
2018-12-06T09:24:21.943Z,12
2018-12-06T09:25:23.967Z,12
2018-12-06T09:26:26.376Z,11
2018-12-06T09:27:28.418Z,11
2018-12-06T09:28:30.424Z,10
2018-12-06T09:29:32.852Z,10
2018-12-06T09:30:34.866Z,10
2018-12-06T09:31:36.957Z,12
2018-12-06T09:32:38.985Z,12
2018-12-06T09:33:41.079Z,13
2018-12-06T09:34:43.108Z,14
2018-12-06T09:35:45.146Z,14
2018-12-06T09:36:47.180Z,14
2018-12-06T09:37:49.190Z,14
2018-12-06T09:38:51.235Z,14
2018-12-06T09:39:53.258Z,13
2018-12-06T09:40:55.286Z,13
2018-12-06T09:41:57.326Z,15
2018-12-06T09:42:59.331Z,16
2018-12-06T09:44:01.357Z,17
2018-12-06T09:45:03.381Z,17
2018-12-06T09:46:05.977Z,18
2018-12-06T09:47:08.015Z,19
2018-12-06T09:48:10.021Z,18
2018-12-06T09:49:12.046Z,18
2018-12-06T09:50:14.074Z,17
2018-12-06T09:51:16.102Z,15
2018-12-06T09:52:18.130Z,14
2018-12-06T09:53:20.552Z,13
2018-12-06T09:54:23.138Z,13
2018-12-06T09:55:25.167Z,13
2018-12-06T09:56:27.549Z,13
2018-12-06T09:57:29.634Z,14
2018-12-06T09:58:31.646Z,14
2018-12-06T09:59:33.659Z,13
2018-12-06T10:00:35.683Z,14
2018-12-06T10:01:37.720Z,14
2018-12-06T10:02:39.735Z,13
2018-12-06T10:03:42.070Z,13
2018-12-06T10:04:44.095Z,13
2018-12-06T10:05:46.129Z,13
2018-12-06T10:06:48.155Z,13
2018-12-06T10:07:50.462Z,13
2018-12-06T10:08:52.873Z,13
2018-12-06T10:09:54.903Z,12
2018-12-06T10:10:57.185Z,12
2018-12-06T10:11:59.231Z,12
2018-12-06T10:13:01.262Z,12
2018-12-06T10:14:03.307Z,12
2018-12-06T10:15:05.343Z,12
2018-12-06T10:16:07.365Z,12
2018-12-06T10:17:09.382Z,11
2018-12-06T10:18:11.420Z,9
2018-12-06T10:19:13.436Z,8
2018-12-06T10:20:15.476Z,8
2018-12-06T10:21:17.510Z,8
2018-12-06T10:22:19.803Z,7
2018-12-06T10:23:21.887Z,7
2018-12-06T10:24:23.924Z,6
2018-12-06T10:25:25.934Z,6
2018-12-06T10:26:27.977Z,6
2018-12-06T10:27:29.997Z,6
2018-12-06T10:28:32.019Z,6
2018-12-06T10:29:34.082Z,6
2018-12-06T10:30:36.104Z,7
2018-12-06T10:31:38.130Z,7
2018-12-06T10:32:40.151Z,7
2018-12-06T10:33:42.476Z,7
2018-12-06T10:34:54.872Z,8
2018-12-06T10:35:56.913Z,8
2018-12-06T10:36:59.239Z,9
2018-12-06T10:38:01.715Z,8
2018-12-06T10:39:03.743Z,8
2018-12-06T10:40:06.278Z,7
2018-12-06T10:41:08.305Z,8
2018-12-06T10:42:10.399Z,8
2018-12-06T10:43:12.715Z,8
2018-12-06T10:44:14.749Z,9
2018-12-06T10:45:16.767Z,9
2018-12-06T10:46:18.819Z,9
2018-12-06T10:47:20.838Z,9
2018-12-06T10:48:22.862Z,9
2018-12-06T10:49:25.266Z,9
2018-12-06T10:50:27.308Z,9
2018-12-06T10:51:29.334Z,9
2018-12-06T10:52:31.370Z,9
2018-12-06T10:53:33.422Z,8
2018-12-06T10:54:36.126Z,8
2018-12-06T10:55:38.434Z,8
2018-12-06T10:56:40.467Z,9
2018-12-06T10:57:42.491Z,10
2018-12-06T10:58:44.514Z,10
2018-12-06T10:59:46.528Z,11
2018-12-06T11:00:48.556Z,11
2018-12-06T11:01:50.851Z,10
2018-12-06T11:02:52.980Z,10
2018-12-06T11:03:55.000Z,10
2018-12-06T11:04:57.028Z,9
2018-12-06T11:05:59.063Z,9
2018-12-06T11:07:01.103Z,8
2018-12-06T11:08:03.132Z,8
2018-12-06T11:09:05.136Z,9
2018-12-06T11:10:07.245Z,11
2018-12-06T11:11:09.262Z,11
2018-12-06T11:12:11.295Z,10
2018-12-06T11:13:13.338Z,10
2018-12-06T11:14:15.369Z,10
2018-12-06T11:15:17.385Z,10
2018-12-06T11:16:19.716Z,10
2018-12-06T11:17:21.739Z,10
2018-12-06T11:18:23.771Z,11
2018-12-06T11:19:25.814Z,11
2018-12-06T11:20:27.829Z,11
2018-12-06T11:21:29.855Z,11
2018-12-06T11:22:31.880Z,11
2018-12-06T11:23:33.898Z,11
2018-12-06T11:24:36.321Z,11
2018-12-06T11:25:38.351Z,11
2018-12-06T11:26:40.357Z,12
2018-12-06T11:27:42.385Z,13
2018-12-06T11:28:44.429Z,13
2018-12-06T11:29:46.462Z,13
2018-12-06T11:30:48.504Z,13
2018-12-06T11:31:50.554Z,13
2018-12-06T11:32:52.575Z,15
2018-12-06T11:33:54.614Z,15
2018-12-06T11:34:57.028Z,15
2018-12-06T11:35:59.737Z,14
2018-12-06T11:37:01.770Z,14
2018-12-06T11:38:03.800Z,14
2018-12-06T11:39:06.220Z,12
2018-12-06T11:40:08.332Z,10
2018-12-06T11:41:10.347Z,9
2018-12-06T11:42:12.379Z,7
2018-12-06T11:43:14.385Z,6
2018-12-06T11:44:16.436Z,6
2018-12-06T11:45:19.032Z,6
2018-12-06T11:46:21.050Z,7
2018-12-06T11:47:23.071Z,9
2018-12-06T11:48:28.329Z,11
2018-12-06T11:49:30.633Z,14
2018-12-06T11:50:32.643Z,14
2018-12-06T11:51:34.704Z,13
2018-12-06T11:52:36.728Z,12
2018-12-06T11:53:38.760Z,12
2018-12-06T11:54:41.059Z,11
2018-12-06T11:55:43.072Z,9
2018-12-06T11:56:45.099Z,7
2018-12-06T11:57:47.137Z,7
2018-12-06T11:58:49.201Z,7
2018-12-06T11:59:51.558Z,7
2018-12-06T12:00:53.602Z,7
2018-12-06T12:01:55.624Z,8
2018-12-06T12:02:57.658Z,10
2018-12-06T12:04:00.047Z,11
2018-12-06T12:05:02.367Z,12
2018-12-06T12:06:04.397Z,12
2018-12-06T12:07:06.427Z,12
2018-12-06T12:08:08.780Z,11
2018-12-06T12:09:10.805Z,9
2018-12-06T12:10:12.844Z,7
2018-12-06T12:11:14.874Z,6
2018-12-06T12:12:16.913Z,6
2018-12-06T12:13:18.922Z,5
2018-12-06T12:14:20.977Z,5
2018-12-06T12:15:22.993Z,5
2018-12-06T12:16:25.021Z,5
2018-12-06T12:17:27.059Z,5
2018-12-06T12:18:29.092Z,7
2018-12-06T12:19:31.425Z,7
2018-12-06T12:20:33.452Z,7
2018-12-06T12:21:35.494Z,8
2018-12-06T12:22:37.507Z,8
2018-12-06T12:23:39.830Z,9
2018-12-06T12:24:42.145Z,10
2018-12-06T12:25:44.546Z,9
2018-12-06T12:26:46.582Z,8
2018-12-06T12:27:48.606Z,7
2018-12-06T12:28:50.634Z,6
2018-12-06T12:29:53.059Z,6
2018-12-06T12:30:55.080Z,6
2018-12-06T12:31:57.509Z,5
2018-12-06T12:32:59.647Z,5
2018-12-06T12:34:01.695Z,5
2018-12-06T12:35:03.710Z,6
2018-12-06T12:36:05.747Z,6
2018-12-06T12:37:07.772Z,6
2018-12-06T12:38:09.795Z,5
2018-12-06T12:39:11.807Z,6
2018-12-06T12:40:13.862Z,5
2018-12-06T12:41:15.928Z,5
2018-12-06T12:42:18.393Z,5
2018-12-06T12:43:20.426Z,5
2018-12-06T12:44:22.454Z,4
2018-12-06T12:45:24.493Z,4
2018-12-06T12:46:26.884Z,4
2018-12-06T12:47:28.950Z,3
2018-12-06T12:48:31.254Z,3
2018-12-06T12:49:33.285Z,3
2018-12-06T12:50:35.308Z,3
2018-12-06T12:51:37.342Z,2
2018-12-06T12:52:39.380Z,2
2018-12-06T12:53:41.439Z,2
2018-12-06T12:54:43.496Z,3
2018-12-06T12:55:45.522Z,3
2018-12-06T12:56:47.537Z,3
2018-12-06T12:57:49.584Z,3
2018-12-06T12:58:51.609Z,3
2018-12-06T12:59:53.652Z,4
2018-12-06T13:00:56.455Z,4
2018-12-06T13:01:58.494Z,4
2018-12-06T13:03:00.793Z,4
2018-12-06T13:04:02.843Z,3
2018-12-06T13:05:04.870Z,4
2018-12-06T13:06:06.901Z,4
2018-12-06T13:07:08.942Z,4
2018-12-06T13:08:10.971Z,4
2018-12-06T13:09:12.997Z,4
2018-12-06T13:10:15.112Z,4
2018-12-06T13:11:17.142Z,4
2018-12-06T13:12:19.217Z,4
2018-12-06T13:13:21.240Z,5
2018-12-06T13:14:23.278Z,5
2018-12-06T13:15:25.337Z,5
2018-12-06T13:16:27.382Z,5
2018-12-06T13:17:29.488Z,4
2018-12-06T13:18:31.790Z,4
2018-12-06T13:19:33.837Z,4
2018-12-06T13:20:36.245Z,4
2018-12-06T13:21:38.300Z,4
2018-12-06T13:22:40.394Z,4
2018-12-06T13:23:42.831Z,4
2018-12-06T13:24:45.155Z,4
2018-12-06T13:25:47.284Z,4
2018-12-06T13:26:49.315Z,4
2018-12-06T13:27:51.362Z,4
2018-12-06T13:28:53.401Z,4
2018-12-06T13:29:55.715Z,4
2018-12-06T13:30:57.739Z,3
2018-12-06T13:31:59.851Z,3
2018-12-06T13:33:01.906Z,3
2018-12-06T13:34:03.934Z,2
2018-12-06T13:35:06.348Z,2
2018-12-06T13:36:08.399Z,2
2018-12-06T13:37:10.448Z,2
2018-12-06T13:38:12.477Z,2
2018-12-06T13:39:14.521Z,2
2018-12-06T13:40:16.604Z,2
2018-12-06T13:41:18.642Z,2
2018-12-06T13:42:25.280Z,2
2018-12-06T13:43:27.688Z,2
2018-12-06T13:44:29.801Z,2
2018-12-06T13:45:31.851Z,3
2018-12-06T13:46:33.855Z,3
2018-12-06T13:47:35.896Z,3
2018-12-06T13:48:37.932Z,3
2018-12-06T13:49:41.830Z,3
2018-12-06T13:50:44.395Z,2
2018-12-06T13:51:46.698Z,2
2018-12-06T13:52:48.743Z,2
2018-12-06T13:53:50.800Z,2
2018-12-06T13:54:52.818Z,2
2018-12-06T13:55:54.870Z,2
2018-12-06T13:56:56.901Z,3
2018-12-06T13:57:59.122Z,3
2018-12-06T13:59:01.161Z,3
2018-12-06T14:00:03.222Z,2
2018-12-06T14:01:08.452Z,2
2018-12-06T14:02:10.691Z,2
2018-12-06T14:03:13.113Z,2
2018-12-06T14:04:15.213Z,2
2018-12-06T14:05:17.252Z,2
2018-12-06T14:06:19.278Z,2
2018-12-06T14:07:21.307Z,2
2018-12-06T14:08:23.355Z,2
2018-12-06T14:09:25.601Z,2
2018-12-06T14:10:27.641Z,2
2018-12-06T14:11:29.681Z,2
2018-12-06T14:12:31.695Z,2
2018-12-06T14:13:33.725Z,2
2018-12-06T14:14:35.764Z,1
2018-12-06T14:15:37.795Z,1
2018-12-06T14:16:40.098Z,2
2018-12-06T14:17:42.154Z,2
2018-12-06T14:18:44.202Z,2
2018-12-06T14:19:46.246Z,1
2018-12-06T14:20:48.470Z,1
2018-12-06T14:21:50.922Z,1
2018-12-06T14:22:52.953Z,1
2018-12-06T14:23:55.239Z,1
2018-12-06T14:24:57.283Z,1
2018-12-06T14:25:59.637Z,1
2018-12-06T14:27:01.672Z,1
2018-12-06T14:28:03.756Z,1
2018-12-06T14:29:05.783Z,1
2018-12-06T14:30:08.241Z,1
2018-12-06T14:31:10.289Z,1
2018-12-06T14:32:12.322Z,0
2018-12-06T14:33:14.404Z,1
2018-12-06T14:34:16.452Z,1
2018-12-06T14:35:18.532Z,1
2018-12-06T14:36:20.543Z,1
2018-12-06T14:37:23.115Z,1
2018-12-06T14:38:25.178Z,1
2018-12-06T14:39:27.282Z,0
2018-12-06T14:40:29.958Z,0
2018-12-06T14:41:32.009Z,0
2018-12-06T14:42:34.134Z,0
2018-12-06T14:43:36.267Z,0
2018-12-06T14:44:38.311Z,0
2018-12-06T14:45:40.356Z,0
2018-12-06T14:46:42.373Z,0
2018-12-06T14:47:44.488Z,0
2018-12-06T14:48:46.516Z,0
2018-12-06T14:49:48.539Z,0
2018-12-06T14:50:52.442Z,0
2018-12-06T14:51:54.526Z,0
2018-12-06T14:52:56.563Z,0
2018-12-06T14:53:58.999Z,0
2018-12-06T14:55:01.032Z,0
2018-12-06T14:56:03.069Z,0
2018-12-06T14:57:05.141Z,0
2018-12-06T14:58:07.200Z,0
2018-12-06T14:59:09.298Z,0
2018-12-06T15:00:11.633Z,0
2018-12-06T15:01:13.763Z,0
2018-12-06T15:02:15.786Z,0
2018-12-06T15:03:17.815Z,0
2018-12-06T15:04:19.834Z,0
2018-12-06T15:05:22.176Z,0
2018-12-06T15:06:24.221Z,0
2018-12-06T15:07:26.274Z,0
2018-12-06T15:08:28.326Z,0
2018-12-06T15:09:30.391Z,0
2018-12-06T15:10:32.419Z,0
2018-12-06T15:11:34.457Z,0
2018-12-06T15:12:36.783Z,0
2018-12-06T15:13:39.199Z,0
2018-12-06T15:14:41.234Z,0
2018-12-06T15:15:43.652Z,0